Time;durP1;ratioP1;P1;durP2;ratioP2;P2;SDS_P1;SDS_P2;PMS_P1;PMS_P2;Temp;Humidity;BMP_temperature;BMP_pressure;BME280_temperature;BME280_humidity;BME280_pressure;Samples;Min_cycle;Max_cycle;Signal;HPM_P1;HPM_P2
2024/01/30 00:02:22;0.00;0.00;0.62;0.00;0.00;0.62;2.80;2.33;;;22.50;23.00;;;;;;2229691;62;20927;-70
2024/01/30 00:05:08;0.00;0.00;0.62;0.00;0.00;0.62;2.60;1.90;;;22.50;23.00;;;;;;2233218;62;20411;-71
2024/01/30 00:07:52;0.00;0.00;0.62;0.00;0.00;0.62;3.00;1.90;;;22.50;23.00;;;;;;2229838;62;20403;-70
2024/01/30 00:10:38;0.00;0.00;0.62;0.00;0.00;0.62;4.13;2.30;;;22.50;23.00;;;;;;2233129;62;20379;-69
2024/01/30 00:13:23;0.00;0.00;0.62;0.00;0.00;0.62;2.80;2.10;;;22.50;23.00;;;;;;2232900;62;21238;-69
2024/01/30 00:16:09;0.00;0.00;0.62;0.00;0.00;0.62;3.20;2.37;;;22.50;23.00;;;;;;2232662;62;20897;-69
2024/01/30 00:18:54;0.00;0.00;0.62;0.00;0.00;0.62;3.50;2.47;;;22.50;23.00;;;;;;2232920;62;20399;-69
2024/01/30 00:21:39;0.00;0.00;0.62;0.00;0.00;0.62;2.77;2.50;;;22.50;23.00;;;;;;2232758;62;20387;-69
2024/01/30 00:24:23;0.00;0.00;0.62;0.00;0.00;0.62;3.50;2.40;;;22.40;22.90;;;;;;2229601;62;20376;-69
2024/01/30 00:27:10;0.00;0.00;0.62;0.00;0.00;0.62;3.90;2.87;;;22.40;22.90;;;;;;2229914;62;20379;-68
2024/01/30 00:29:55;0.00;0.00;0.62;0.00;0.00;0.62;2.80;2.37;;;22.50;23.00;;;;;;2229576;62;20415;-70
2024/01/30 00:32:40;0.00;0.00;0.62;0.00;0.00;0.62;3.10;2.20;;;22.40;22.90;;;;;;2232321;62;20391;-69
2024/01/30 00:35:24;0.00;0.00;0.62;0.00;0.00;0.62;2.83;2.03;;;22.40;22.90;;;;;;2232642;62;20395;-69
2024/01/30 00:38:09;0.00;0.00;0.62;0.00;0.00;0.62;2.57;2.23;;;22.40;23.00;;;;;;2232012;62;20476;-71
2024/01/30 00:40:53;0.00;0.00;0.62;0.00;0.00;0.62;3.10;2.30;;;22.40;22.90;;;;;;2232658;62;20375;-69
2024/01/30 00:43:39;0.00;0.00;0.62;0.00;0.00;0.62;2.53;1.83;;;22.40;23.00;;;;;;2229684;62;20404;-69
2024/01/30 00:46:24;0.00;0.00;0.62;0.00;0.00;0.62;2.87;1.90;;;22.40;23.00;;;;;;2229556;62;20416;-69
2024/01/30 00:49:09;0.00;0.00;0.62;0.00;0.00;0.62;2.83;2.07;;;22.40;23.00;;;;;;2232881;62;20419;-69
2024/01/30 00:51:53;0.00;0.00;0.62;0.00;0.00;0.62;2.80;2.13;;;22.40;23.50;;;;;;2232283;62;20443;-72
2024/01/30 00:54:38;0.00;0.00;0.62;0.00;0.00;0.62;2.20;2.00;;;22.40;23.00;;;;;;2232482;62;20375;-69
2024/01/30 00:57:22;0.00;0.00;0.62;0.00;0.00;0.62;2.73;2.03;;;22.40;23.00;;;;;;2229242;62;20378;-70
2024/01/30 01:00:10;0.00;0.00;0.62;0.00;0.00;0.62;2.10;1.90;;;22.40;23.00;;;;;;2232839;62;20367;-68
2024/01/30 01:02:54;0.00;0.00;0.62;0.00;0.00;0.62;2.30;1.80;;;22.40;23.00;;;;;;2463148;54;20434;-69
2024/01/30 01:05:39;0.00;0.00;0.62;0.00;0.00;0.62;2.53;2.20;;;22.40;23.00;;;;;;2405611;46;20371;-70
2024/01/30 01:08:25;0.00;0.00;0.62;0.00;0.00;0.62;5.47;2.40;;;22.40;23.00;;;;;;2232843;62;20473;-69
2024/01/30 01:11:10;0.00;0.00;0.62;0.00;0.00;0.62;3.23;2.60;;;22.40;23.00;;;;;;2233174;62;20430;-70
2024/01/30 01:13:54;0.00;0.00;0.62;0.00;0.00;0.62;2.73;2.00;;;22.40;23.00;;;;;;2692695;46;20383;-70
2024/01/30 01:16:40;0.00;0.00;0.62;0.00;0.00;0.62;2.60;2.30;;;22.40;23.00;;;;;;2231620;62;20450;-69
2024/01/30 01:19:25;0.00;0.00;0.62;0.00;0.00;0.62;2.27;1.73;;;22.40;23.00;;;;;;2229610;62;20379;-70
2024/01/30 01:22:09;0.00;0.00;0.62;0.00;0.00;0.62;3.90;1.80;;;22.40;23.00;;;;;;2232370;62;20398;-70
2024/01/30 01:24:54;0.00;0.00;0.62;0.00;0.00;0.62;2.20;1.90;;;22.40;23.00;;;;;;2626010;46;20367;-70
2024/01/30 01:27:40;0.00;0.00;0.62;0.00;0.00;0.62;2.53;2.23;;;22.40;23.00;;;;;;2232915;62;20408;-70
2024/01/30 01:30:25;0.00;0.00;0.62;0.00;0.00;0.62;2.20;1.90;;;22.40;23.00;;;;;;2228900;62;20420;-70
2024/01/30 01:33:14;0.00;0.00;0.62;0.00;0.00;0.62;2.30;1.87;;;22.40;23.00;;;;;;2229686;62;20403;-69
2024/01/30 01:35:58;0.00;0.00;0.62;0.00;0.00;0.62;2.80;2.20;;;22.40;23.00;;;;;;2229613;62;20496;-69
2024/01/30 01:38:43;0.00;0.00;0.62;0.00;0.00;0.62;2.80;2.10;;;22.40;23.00;;;;;;2229091;62;20379;-70
2024/01/30 01:41:31;0.00;0.00;0.62;0.00;0.00;0.62;2.60;1.80;;;22.40;23.00;;;;;;2232687;62;20387;-69
2024/01/30 01:44:15;0.00;0.00;0.62;0.00;0.00;0.62;2.60;1.90;;;22.40;23.00;;;;;;2229841;62;20452;-69
2024/01/30 01:47:00;0.00;0.00;0.62;0.00;0.00;0.62;2.50;2.10;;;22.40;23.00;;;;;;2232485;62;20903;-70
2024/01/30 01:49:46;0.00;0.00;0.62;0.00;0.00;0.62;2.13;1.67;;;22.40;23.50;;;;;;2229382;62;20371;-70
2024/01/30 01:52:32;0.00;0.00;0.62;0.00;0.00;0.62;2.77;2.07;;;22.30;23.00;;;;;;2228875;62;20462;-69
2024/01/30 01:55:21;0.00;0.00;0.62;0.00;0.00;0.62;2.87;1.90;;;22.40;23.00;;;;;;2229601;62;20424;-69
2024/01/30 01:58:08;0.00;0.00;0.62;0.00;0.00;0.62;2.50;2.30;;;22.40;23.00;;;;;;2229828;62;20374;-69
2024/01/30 02:00:53;0.00;0.00;0.62;0.00;0.00;0.62;1.90;1.67;;;22.30;23.00;;;;;;2229278;62;20882;-69
2024/01/30 02:03:38;0.00;0.00;0.62;0.00;0.00;0.62;2.67;2.03;;;22.30;23.00;;;;;;2232513;62;20424;-69
2024/01/30 02:06:24;0.00;0.00;0.62;0.00;0.00;0.62;2.73;1.90;;;22.30;23.00;;;;;;2226985;62;20375;-69
2024/01/30 02:09:09;0.00;0.00;0.62;0.00;0.00;0.62;2.43;1.93;;;22.30;23.00;;;;;;2230056;62;20901;-70
2024/01/30 02:11:54;0.00;0.00;0.62;0.00;0.00;0.62;2.60;1.70;;;22.30;23.00;;;;;;2232516;62;20427;-69
2024/01/30 02:14:45;0.00;0.00;0.62;0.00;0.00;0.62;2.50;1.90;;;22.30;23.00;;;;;;2229321;62;20488;-70
2024/01/30 02:17:30;0.00;0.00;0.62;0.00;0.00;0.62;2.47;2.10;;;22.30;23.00;;;;;;2229545;62;20371;-69
2024/01/30 02:20:14;0.00;0.00;0.62;0.00;0.00;0.62;2.73;1.80;;;22.30;23.00;;;;;;2232611;62;20367;-69
2024/01/30 02:23:02;0.00;0.00;0.62;0.00;0.00;0.62;2.43;1.93;;;22.30;23.00;;;;;;2228975;62;20483;-70
2024/01/30 02:25:47;0.00;0.00;0.62;0.00;0.00;0.62;2.50;2.20;;;22.30;23.00;;;;;;2232304;62;20399;-71
2024/01/30 02:28:33;0.00;0.00;0.62;0.00;0.00;0.62;2.37;2.03;;;22.30;23.00;;;;;;2224587;62;20450;-69
2024/01/30 02:31:18;0.00;0.00;0.62;0.00;0.00;0.62;2.60;2.07;;;22.30;23.00;;;;;;2231466;62;20407;-70
2024/01/30 02:34:03;0.00;0.00;0.62;0.00;0.00;0.62;2.33;1.80;;;22.30;23.00;;;;;;2232808;62;20749;-69
2024/01/30 02:36:48;0.00;0.00;0.62;0.00;0.00;0.62;2.50;2.03;;;22.30;23.00;;;;;;2231860;62;20395;-70
2024/01/30 02:39:34;0.00;0.00;0.62;0.00;0.00;0.62;3.17;2.17;;;22.30;23.00;;;;;;2232812;62;20460;-70
2024/01/30 02:42:18;0.00;0.00;0.62;0.00;0.00;0.62;2.70;2.17;;;22.30;23.00;;;;;;2229063;62;20435;-70
2024/01/30 02:45:04;0.00;0.00;0.62;0.00;0.00;0.62;2.20;1.80;;;22.30;23.00;;;;;;2232159;62;20371;-71
2024/01/30 02:47:48;0.00;0.00;0.62;0.00;0.00;0.62;2.47;1.90;;;22.30;22.90;;;;;;2226347;62;20383;-70
2024/01/30 02:50:33;0.00;0.00;0.62;0.00;0.00;0.62;3.20;2.23;;;22.30;23.00;;;;;;2232423;62;20419;-70
2024/01/30 02:53:18;0.00;0.00;0.62;0.00;0.00;0.62;2.87;1.80;;;22.30;23.00;;;;;;2226750;62;20410;-71
2024/01/30 02:56:05;0.00;0.00;0.62;0.00;0.00;0.62;3.83;2.37;;;22.30;22.90;;;;;;2229365;62;20375;-74
2024/01/30 02:58:50;0.00;0.00;0.62;0.00;0.00;0.62;3.83;2.20;;;22.30;23.00;;;;;;2226012;62;20431;-70
2024/01/30 03:01:43;0.00;0.00;0.62;0.00;0.00;0.62;2.50;2.03;;;22.30;23.00;;;;;;2229188;62;20824;-71
2024/01/30 03:04:29;0.00;0.00;0.62;0.00;0.00;0.62;2.37;1.80;;;22.30;23.00;;;;;;2229217;62;20374;-70
2024/01/30 03:07:14;0.00;0.00;0.62;0.00;0.00;0.62;2.70;1.90;;;22.30;23.00;;;;;;2229002;62;20407;-70
2024/01/30 03:09:59;0.00;0.00;0.62;0.00;0.00;0.62;2.60;2.07;;;22.30;23.00;;;;;;2228990;62;20429;-71
2024/01/30 03:12:44;0.00;0.00;0.62;0.00;0.00;0.62;2.77;2.10;;;22.30;23.00;;;;;;2228826;62;20416;-70
2024/01/30 03:15:29;0.00;0.00;0.62;0.00;0.00;0.62;2.37;1.90;;;22.30;23.00;;;;;;2231941;62;20383;-70
2024/01/30 03:18:13;0.00;0.00;0.62;0.00;0.00;0.62;2.20;1.80;;;22.20;22.90;;;;;;2229170;62;20436;-70
2024/01/30 03:20:58;0.00;0.00;0.62;0.00;0.00;0.62;2.53;2.03;;;22.20;22.90;;;;;;2231607;62;20371;-69
2024/01/30 03:23:43;0.00;0.00;0.62;0.00;0.00;0.62;2.53;1.80;;;22.20;22.90;;;;;;2232428;62;20367;-70
2024/01/30 03:26:27;0.00;0.00;0.62;0.00;0.00;0.62;2.40;2.10;;;22.20;22.90;;;;;;2232190;62;21039;-70
2024/01/30 03:29:13;0.00;0.00;0.62;0.00;0.00;0.62;2.40;2.00;;;22.30;23.00;;;;;;2234220;61;20383;-68
2024/01/30 03:31:57;0.00;0.00;0.62;0.00;0.00;0.62;2.10;1.83;;;22.20;22.90;;;;;;2232780;62;20442;-69
2024/01/30 03:34:42;0.00;0.00;0.62;0.00;0.00;0.62;2.33;2.03;;;22.30;23.00;;;;;;2229673;62;20398;-69
2024/01/30 03:37:26;0.00;0.00;0.62;0.00;0.00;0.62;2.10;1.70;;;22.20;22.90;;;;;;2229441;62;20378;-70
2024/01/30 03:40:12;0.00;0.00;0.62;0.00;0.00;0.62;2.10;1.70;;;22.20;22.90;;;;;;2233047;62;20391;-70
2024/01/30 03:42:57;0.00;0.00;0.62;0.00;0.00;0.62;2.17;1.83;;;22.20;22.90;;;;;;2229328;62;20454;-69
2024/01/30 03:45:43;0.00;0.00;0.62;0.00;0.00;0.62;2.23;1.90;;;22.20;22.90;;;;;;2229836;62;20915;-71
2024/01/30 03:48:29;0.00;0.00;0.62;0.00;0.00;0.62;2.53;2.10;;;22.20;22.90;;;;;;2229670;62;20371;-70
2024/01/30 03:51:15;0.00;0.00;0.62;0.00;0.00;0.62;2.73;2.20;;;22.20;22.90;;;;;;2232189;62;20520;-71
2024/01/30 03:54:00;0.00;0.00;0.62;0.00;0.00;0.62;2.03;1.50;;;22.20;22.90;;;;;;2233140;62;20803;-69
2024/01/30 03:56:45;0.00;0.00;0.62;0.00;0.00;0.62;2.43;2.03;;;22.20;22.90;;;;;;2232951;62;20375;-70
2024/01/30 03:59:29;0.00;0.00;0.62;0.00;0.00;0.62;2.33;1.83;;;22.20;22.90;;;;;;2229247;62;20436;-70
2024/01/30 04:02:15;0.00;0.00;0.62;0.00;0.00;0.62;2.50;2.00;;;22.20;22.90;;;;;;2232940;62;20387;-69
2024/01/30 04:04:59;0.00;0.00;0.62;0.00;0.00;0.62;2.53;2.30;;;22.20;23.00;;;;;;2232757;62;20909;-69
2024/01/30 04:07:44;0.00;0.00;0.62;0.00;0.00;0.62;2.43;1.97;;;22.20;23.00;;;;;;2488798;54;20367;-70
2024/01/30 04:10:29;0.00;0.00;0.62;0.00;0.00;0.62;3.47;2.03;;;22.20;23.00;;;;;;2232835;62;20370;-69
2024/01/30 04:13:13;0.00;0.00;0.62;0.00;0.00;0.62;2.30;1.90;;;22.20;22.90;;;;;;2229221;62;20491;-70
2024/01/30 04:16:01;0.00;0.00;0.62;0.00;0.00;0.62;2.53;2.00;;;22.20;23.00;;;;;;2232713;62;20782;-70
2024/01/30 04:18:47;0.00;0.00;0.62;0.00;0.00;0.62;2.63;2.13;;;22.20;23.00;;;;;;2232938;62;20355;-69
2024/01/30 04:21:31;0.00;0.00;0.62;0.00;0.00;0.62;2.20;1.73;;;22.20;23.00;;;;;;2232653;62;20419;-70
2024/01/30 04:24:18;0.00;0.00;0.62;0.00;0.00;0.62;2.40;1.80;;;22.20;22.90;;;;;;2232793;62;20370;-69
2024/01/30 04:27:03;0.00;0.00;0.62;0.00;0.00;0.62;2.10;1.70;;;22.20;22.90;;;;;;2232899;62;20383;-68
2024/01/30 04:29:48;0.00;0.00;0.62;0.00;0.00;0.62;1.83;1.53;;;22.20;22.90;;;;;;2733520;46;20900;-69
2024/01/30 04:32:33;0.00;0.00;0.62;0.00;0.00;0.62;2.50;2.00;;;22.20;23.00;;;;;;2228883;62;20451;-70
2024/01/30 04:35:20;0.00;0.00;0.62;0.00;0.00;0.62;2.47;2.20;;;22.20;23.00;;;;;;2229678;62;20427;-71
2024/01/30 04:38:04;0.00;0.00;0.62;0.00;0.00;0.62;2.53;1.70;;;22.20;23.50;;;;;;2232302;62;20926;-71
2024/01/30 04:40:49;0.00;0.00;0.62;0.00;0.00;0.62;2.33;1.43;;;22.20;23.00;;;;;;2232847;62;20616;-73
2024/01/30 04:43:33;0.00;0.00;0.62;0.00;0.00;0.62;2.90;1.90;;;22.20;23.00;;;;;;2229178;62;20370;-70
2024/01/30 04:46:18;0.00;0.00;0.62;0.00;0.00;0.62;2.03;1.50;;;22.20;23.00;;;;;;2232773;62;20431;-70
2024/01/30 04:49:03;0.00;0.00;0.62;0.00;0.00;0.62;2.10;1.67;;;22.20;23.00;;;;;;2229589;62;20492;-70
2024/01/30 04:51:49;0.00;0.00;0.62;0.00;0.00;0.62;2.50;2.10;;;22.20;23.00;;;;;;2226288;62;20507;-70
2024/01/30 04:54:35;0.00;0.00;0.62;0.00;0.00;0.62;2.47;1.50;;;22.20;23.00;;;;;;2229599;62;20778;-70
2024/01/30 04:57:19;0.00;0.00;0.62;0.00;0.00;0.62;1.90;1.60;;;22.20;23.00;;;;;;2232472;62;20405;-70
2024/01/30 05:00:06;0.00;0.00;0.62;0.00;0.00;0.62;2.43;1.63;;;22.20;23.00;;;;;;2229595;62;20904;-70
2024/01/30 05:02:50;0.00;0.00;0.62;0.00;0.00;0.62;2.20;1.53;;;22.20;23.00;;;;;;2232550;62;20395;-70
2024/01/30 05:05:35;0.00;0.00;0.62;0.00;0.00;0.62;2.40;1.80;;;22.20;23.50;;;;;;2232530;62;20419;-71
2024/01/30 05:08:21;0.00;0.00;0.62;0.00;0.00;0.62;2.50;1.60;;;22.20;23.00;;;;;;2232843;62;20467;-70
2024/01/30 05:11:05;0.00;0.00;0.62;0.00;0.00;0.62;2.07;1.57;;;22.10;22.90;;;;;;2232729;62;20380;-70
2024/01/30 05:13:50;0.00;0.00;0.62;0.00;0.00;0.62;2.47;1.80;;;22.20;23.00;;;;;;2233130;62;20864;-72
2024/01/30 05:16:35;0.00;0.00;0.62;0.00;0.00;0.62;2.60;1.63;;;22.20;23.00;;;;;;2231552;62;20371;-70
2024/01/30 05:19:21;0.00;0.00;0.62;0.00;0.00;0.62;1.90;1.70;;;22.10;22.90;;;;;;2234216;62;20375;-70
2024/01/30 05:22:05;0.00;0.00;0.62;0.00;0.00;0.62;1.90;1.60;;;22.20;23.00;;;;;;2231431;62;20431;-70
2024/01/30 05:24:51;0.00;0.00;0.62;0.00;0.00;0.62;2.43;1.77;;;22.10;22.90;;;;;;2234590;62;20442;-69
2024/01/30 05:27:36;0.00;0.00;0.62;0.00;0.00;0.62;2.40;1.80;;;22.10;22.90;;;;;;2230457;62;20949;-69
2024/01/30 05:30:21;0.00;0.00;0.62;0.00;0.00;0.62;2.13;1.67;;;22.10;23.00;;;;;;2233669;62;20367;-70
2024/01/30 05:33:05;0.00;0.00;0.62;0.00;0.00;0.62;2.17;1.97;;;22.20;23.00;;;;;;2233783;62;20464;-70
2024/01/30 05:35:50;0.00;0.00;0.62;0.00;0.00;0.62;3.40;2.53;;;22.10;22.90;;;;;;2228028;62;20379;-70
2024/01/30 05:38:38;0.00;0.00;0.62;0.00;0.00;0.62;2.00;1.70;;;22.10;22.90;;;;;;2230610;62;20379;-71
2024/01/30 05:41:25;0.00;0.00;0.62;0.00;0.00;0.62;2.30;1.90;;;22.10;22.90;;;;;;2231388;62;20444;-69
2024/01/30 05:44:09;0.00;0.00;0.62;0.00;0.00;0.62;2.17;1.77;;;22.10;23.00;;;;;;2235789;62;20387;-70
2024/01/30 05:46:54;0.00;0.00;0.62;0.00;0.00;0.62;1.90;1.60;;;22.10;22.90;;;;;;2232848;62;20913;-70
2024/01/30 05:49:39;0.00;0.00;0.62;0.00;0.00;0.62;2.03;1.77;;;22.10;22.90;;;;;;2235268;62;20375;-70
2024/01/30 05:52:24;0.00;0.00;0.62;0.00;0.00;0.62;2.20;1.53;;;22.10;22.90;;;;;;2231001;62;20430;-70
2024/01/30 05:55:09;0.00;0.00;0.62;0.00;0.00;0.62;2.53;1.80;;;22.10;22.90;;;;;;2234173;62;20415;-70
2024/01/30 05:57:55;0.00;0.00;0.62;0.00;0.00;0.62;2.40;1.67;;;22.10;22.90;;;;;;2229959;62;20780;-70
2024/01/30 06:00:40;0.00;0.00;0.62;0.00;0.00;0.62;2.90;2.00;;;22.10;23.00;;;;;;2232629;62;20403;-70
2024/01/30 06:03:24;0.00;0.00;0.62;0.00;0.00;0.62;2.30;2.00;;;22.10;22.90;;;;;;2232617;62;20367;-71
2024/01/30 06:06:09;0.00;0.00;0.62;0.00;0.00;0.62;2.50;1.90;;;22.10;23.00;;;;;;2525745;46;20367;-69
2024/01/30 06:08:56;0.00;0.00;0.62;0.00;0.00;0.62;2.13;1.60;;;22.10;22.90;;;;;;2229446;62;20404;-70
2024/01/30 06:11:40;0.00;0.00;0.62;0.00;0.00;0.62;2.37;2.10;;;22.10;23.00;;;;;;2228787;62;20471;-71
2024/01/30 06:14:26;0.00;0.00;0.62;0.00;0.00;0.62;2.30;1.90;;;22.10;22.90;;;;;;2226663;62;20438;-71
2024/01/30 06:17:11;0.00;0.00;0.62;0.00;0.00;0.62;2.20;1.87;;;22.10;23.00;;;;;;2232245;62;20427;-71
2024/01/30 06:19:56;0.00;0.00;0.62;0.00;0.00;0.62;2.80;2.17;;;22.10;23.00;;;;;;2229026;62;20371;-70
2024/01/30 06:22:41;0.00;0.00;0.62;0.00;0.00;0.62;4.60;2.40;;;22.10;22.90;;;;;;2232365;62;20388;-74
2024/01/30 06:25:26;0.00;0.00;0.62;0.00;0.00;0.62;2.53;2.30;;;22.10;22.90;;;;;;2232148;62;20455;-70
2024/01/30 06:28:10;0.00;0.00;0.62;0.00;0.00;0.62;2.73;2.20;;;22.10;23.50;;;;;;2628630;46;20420;-71
2024/01/30 06:30:56;0.00;0.00;0.62;0.00;0.00;0.62;2.47;1.90;;;22.10;22.90;;;;;;2229474;62;20371;-71
2024/01/30 06:33:42;0.00;0.00;0.62;0.00;0.00;0.62;2.77;2.23;;;22.10;23.00;;;;;;2231816;62;20465;-71
2024/01/30 06:36:26;0.00;0.00;0.62;0.00;0.00;0.62;2.90;2.27;;;22.10;22.90;;;;;;2229456;62;20446;-70
2024/01/30 06:39:11;0.00;0.00;0.62;0.00;0.00;0.62;2.63;2.20;;;22.10;23.00;;;;;;2229327;62;20370;-73
2024/01/30 06:41:56;0.00;0.00;0.62;0.00;0.00;0.62;2.87;2.30;;;22.10;22.90;;;;;;2228859;62;20395;-70
2024/01/30 06:44:40;0.00;0.00;0.62;0.00;0.00;0.62;2.90;2.30;;;22.10;23.00;;;;;;2229173;62;20412;-71
2024/01/30 06:47:26;0.00;0.00;0.62;0.00;0.00;0.62;2.63;1.80;;;22.00;22.90;;;;;;2229318;62;20395;-71
2024/01/30 06:50:11;0.00;0.00;0.62;0.00;0.00;0.62;3.23;2.37;;;22.00;22.90;;;;;;2232013;62;20383;-71
2024/01/30 06:52:55;0.00;0.00;0.62;0.00;0.00;0.62;2.87;2.03;;;22.10;23.00;;;;;;2229046;62;20415;-71
2024/01/30 06:55:40;0.00;0.00;0.62;0.00;0.00;0.62;3.07;2.50;;;22.10;22.90;;;;;;2232061;62;20371;-70
2024/01/30 06:58:25;0.00;0.00;0.62;0.00;0.00;0.62;3.40;2.37;;;22.10;23.00;;;;;;2232229;62;20829;-71
2024/01/30 07:01:10;0.00;0.00;0.62;0.00;0.00;0.62;2.70;2.23;;;22.10;23.00;;;;;;2232231;62;20392;-71
2024/01/30 07:03:57;0.00;0.00;0.62;0.00;0.00;0.62;4.20;2.70;;;22.10;23.00;;;;;;2232100;62;20477;-71
2024/01/30 07:06:41;0.00;0.00;0.62;0.00;0.00;0.62;3.17;2.87;;;22.10;23.00;;;;;;2226566;62;20520;-71
2024/01/30 07:09:26;0.00;0.00;0.62;0.00;0.00;0.62;4.63;3.47;;;22.10;23.00;;;;;;2232136;62;20953;-70
2024/01/30 07:12:11;0.00;0.00;0.62;0.00;0.00;0.62;4.40;3.70;;;22.10;23.00;;;;;;2228668;62;20407;-71
2024/01/30 07:14:56;0.00;0.00;0.62;0.00;0.00;0.62;3.83;3.43;;;22.10;23.00;;;;;;2229071;62;20847;-70
2024/01/30 07:17:41;0.00;0.00;0.62;0.00;0.00;0.62;4.73;4.00;;;22.10;22.90;;;;;;2226040;62;20816;-71
2024/01/30 07:20:27;0.00;0.00;0.62;0.00;0.00;0.62;5.23;4.50;;;22.10;23.00;;;;;;2229224;62;20396;-70
2024/01/30 07:23:13;0.00;0.00;0.62;0.00;0.00;0.62;4.20;3.60;;;22.00;22.90;;;;;;2226307;62;20395;-70
2024/01/30 07:25:58;0.00;0.00;0.62;0.00;0.00;0.62;4.80;4.10;;;22.00;22.90;;;;;;2228746;62;20455;-71
2024/01/30 07:28:43;0.00;0.00;0.62;0.00;0.00;0.62;5.97;4.80;;;22.00;22.90;;;;;;2229102;62;20374;-70
2024/01/30 07:31:29;0.00;0.00;0.62;0.00;0.00;0.62;4.93;4.37;;;22.00;22.90;;;;;;2228904;62;20396;-71
2024/01/30 07:34:13;0.00;0.00;0.62;0.00;0.00;0.62;5.47;4.87;;;22.00;22.90;;;;;;2225866;62;20439;-71
2024/01/30 07:36:59;0.00;0.00;0.62;0.00;0.00;0.62;6.07;4.23;;;22.00;22.90;;;;;;2232304;62;20902;-70
2024/01/30 07:39:44;0.00;0.00;0.62;0.00;0.00;0.62;5.77;4.83;;;22.00;22.90;;;;;;2229117;62;20465;-69
2024/01/30 07:42:29;0.00;0.00;0.62;0.00;0.00;0.62;6.90;4.77;;;22.00;22.90;;;;;;2473499;54;20970;-70
2024/01/30 07:45:13;0.00;0.00;0.62;0.00;0.00;0.62;7.60;4.97;;;22.00;22.90;;;;;;2225297;62;20384;-70
2024/01/30 07:47:59;0.00;0.00;0.62;0.00;0.00;0.62;5.83;5.20;;;22.00;22.90;;;;;;2226115;62;20448;-71
2024/01/30 07:50:44;0.00;0.00;0.62;0.00;0.00;0.62;7.00;6.03;;;22.00;22.90;;;;;;2232207;62;20416;-70
2024/01/30 07:53:30;0.00;0.00;0.62;0.00;0.00;0.62;7.80;6.67;;;22.00;22.90;;;;;;2232348;62;20399;-70
2024/01/30 08:01:26;0.00;0.00;0.62;0.00;0.00;0.62;7.50;6.23;;;22.00;22.90;;;;;;2232213;62;20347;-69
2024/01/30 08:04:11;0.00;0.00;0.62;0.00;0.00;0.62;7.77;6.97;;;22.00;22.90;;;;;;2228768;62;20419;-71
2024/01/30 08:06:56;0.00;0.00;0.62;0.00;0.00;0.62;8.00;6.23;;;22.00;22.90;;;;;;2232286;62;20734;-71
2024/01/30 08:09:41;0.00;0.00;0.62;0.00;0.00;0.62;7.10;6.30;;;22.00;22.90;;;;;;2225734;62;20936;-70
2024/01/30 08:12:26;0.00;0.00;0.62;0.00;0.00;0.62;6.80;5.90;;;22.00;22.90;;;;;;2228955;62;20387;-70
2024/01/30 08:15:13;0.00;0.00;0.62;0.00;0.00;0.62;6.60;5.90;;;22.00;23.00;;;;;;2229354;62;20379;-70
2024/01/30 08:17:58;0.00;0.00;0.62;0.00;0.00;0.62;7.80;6.77;;;22.00;23.00;;;;;;2232593;62;20380;-69
2024/01/30 08:20:43;0.00;0.00;0.62;0.00;0.00;0.62;8.10;6.70;;;22.00;22.90;;;;;;2229550;62;20830;-70
2024/01/30 08:23:27;0.00;0.00;0.62;0.00;0.00;0.62;8.30;7.30;;;22.00;22.90;;;;;;2232792;62;20424;-71
2024/01/30 08:26:13;0.00;0.00;0.62;0.00;0.00;0.62;7.73;7.00;;;22.00;22.90;;;;;;2226692;62;20374;-70
2024/01/30 08:28:58;0.00;0.00;0.62;0.00;0.00;0.62;8.33;7.43;;;22.00;22.90;;;;;;2227303;62;20387;-70
2024/01/30 08:31:44;0.00;0.00;0.62;0.00;0.00;0.62;8.23;6.83;;;22.00;22.90;;;;;;2231992;62;20730;-70
2024/01/30 08:34:28;0.00;0.00;0.62;0.00;0.00;0.62;7.40;6.23;;;22.00;22.90;;;;;;2232653;62;20535;-70
2024/01/30 08:37:16;0.00;0.00;0.62;0.00;0.00;0.62;10.17;7.90;;;22.00;22.90;;;;;;2232780;62;20487;-70
2024/01/30 08:40:01;0.00;0.00;0.62;0.00;0.00;0.62;7.90;7.00;;;22.00;23.00;;;;;;2229399;62;20459;-69
2024/01/30 08:42:48;0.00;0.00;0.62;0.00;0.00;0.62;8.90;6.30;;;22.00;22.90;;;;;;2232606;62;20933;-72
2024/01/30 08:45:32;0.00;0.00;0.62;0.00;0.00;0.62;7.43;6.60;;;22.00;22.90;;;;;;2232949;62;20878;-69
2024/01/30 08:48:17;0.00;0.00;0.62;0.00;0.00;0.62;7.43;6.63;;;22.00;22.90;;;;;;2226029;62;20404;-68
2024/01/30 08:51:02;0.00;0.00;0.62;0.00;0.00;0.62;7.90;6.73;;;22.00;22.90;;;;;;2228569;62;20472;-70
2024/01/30 08:53:47;0.00;0.00;0.62;0.00;0.00;0.62;8.00;6.30;;;22.00;23.00;;;;;;2225334;62;20889;-69
2024/01/30 08:56:32;0.00;0.00;0.62;0.00;0.00;0.62;8.90;6.67;;;22.00;22.90;;;;;;2229913;62;20364;-69
2024/01/30 08:59:17;0.00;0.00;0.62;0.00;0.00;0.62;7.13;6.43;;;22.00;22.90;;;;;;2229580;62;20379;-70
2024/01/30 09:02:03;0.00;0.00;0.62;0.00;0.00;0.62;8.80;7.90;;;22.00;22.90;;;;;;2232278;62;20431;-70
2024/01/30 09:04:48;0.00;0.00;0.62;0.00;0.00;0.62;8.27;6.33;;;22.00;22.90;;;;;;2232783;62;20423;-69
2024/01/30 09:07:32;0.00;0.00;0.62;0.00;0.00;0.62;8.17;6.27;;;22.00;22.90;;;;;;2233107;62;20904;-69
2024/01/30 09:10:17;0.00;0.00;0.62;0.00;0.00;0.62;8.37;6.60;;;22.00;23.00;;;;;;2232582;62;20410;-70
2024/01/30 09:13:01;0.00;0.00;0.62;0.00;0.00;0.62;7.70;6.20;;;22.00;23.00;;;;;;2229286;62;20817;-69
2024/01/30 09:15:47;0.00;0.00;0.62;0.00;0.00;0.62;7.67;6.37;;;22.00;23.00;;;;;;2232811;62;20367;-70
2024/01/30 09:18:32;0.00;0.00;0.62;0.00;0.00;0.62;7.80;6.63;;;22.00;23.00;;;;;;2462883;54;20531;-69
2024/01/30 09:21:17;0.00;0.00;0.62;0.00;0.00;0.62;7.30;5.80;;;22.00;23.00;;;;;;2232570;62;20929;-69
2024/01/30 09:24:06;0.00;0.00;0.62;0.00;0.00;0.62;8.00;6.43;;;22.00;23.00;;;;;;2232256;62;20945;-69
2024/01/30 09:26:50;0.00;0.00;0.62;0.00;0.00;0.62;8.60;7.07;;;22.00;23.00;;;;;;2229427;62;20420;-69
2024/01/30 09:29:36;0.00;0.00;0.62;0.00;0.00;0.62;9.43;7.30;;;22.00;23.00;;;;;;2229572;62;20503;-70
2024/01/30 09:32:22;0.00;0.00;0.62;0.00;0.00;0.62;7.80;6.63;;;22.00;23.00;;;;;;2229138;62;20616;-69
2024/01/30 09:35:07;0.00;0.00;0.62;0.00;0.00;0.62;8.27;6.13;;;22.00;23.00;;;;;;2232806;62;20380;-69
2024/01/30 09:37:52;0.00;0.00;0.62;0.00;0.00;0.62;7.60;6.57;;;22.00;23.00;;;;;;2232836;62;20355;-70
2024/01/30 09:40:37;0.00;0.00;0.62;0.00;0.00;0.62;7.67;6.87;;;22.00;23.00;;;;;;2534103;46;20485;-69
2024/01/30 09:43:23;0.00;0.00;0.62;0.00;0.00;0.62;7.13;6.43;;;22.00;23.00;;;;;;2229553;62;20796;-70
2024/01/30 09:46:13;0.00;0.00;0.62;0.00;0.00;0.62;8.80;7.40;;;22.00;23.00;;;;;;2229336;62;20500;-70
2024/01/30 09:49:01;0.00;0.00;0.62;0.00;0.00;0.62;9.40;7.30;;;22.00;23.00;;;;;;2232600;62;20370;-70
2024/01/30 09:51:47;0.00;0.00;0.62;0.00;0.00;0.62;9.07;7.60;;;22.00;23.00;;;;;;2229262;62;20463;-69
2024/01/30 09:54:33;0.00;0.00;0.62;0.00;0.00;0.62;8.40;6.73;;;22.00;23.00;;;;;;2229401;62;20413;-69
2024/01/30 09:57:18;0.00;0.00;0.62;0.00;0.00;0.62;7.87;7.07;;;22.00;23.00;;;;;;2232799;62;20447;-69
2024/01/30 10:00:04;0.00;0.00;0.62;0.00;0.00;0.62;8.73;7.40;;;22.10;23.10;;;;;;2229494;62;20371;-69
2024/01/30 10:02:57;0.00;0.00;0.62;0.00;0.00;0.62;11.20;9.63;;;22.00;23.00;;;;;;2606078;46;20839;-69
2024/01/30 10:05:49;0.00;0.00;0.62;0.00;0.00;0.62;8.03;7.23;;;22.10;23.10;;;;;;2229442;62;20359;-70
2024/01/30 10:08:35;0.00;0.00;0.62;0.00;0.00;0.62;8.90;8.00;;;22.10;23.10;;;;;;2227716;62;20372;-69
2024/01/30 10:11:20;0.00;0.00;0.62;0.00;0.00;0.62;9.37;8.37;;;22.10;23.10;;;;;;2222626;62;20396;-69
2024/01/30 10:14:04;0.00;0.00;0.62;0.00;0.00;0.62;8.53;7.60;;;22.10;23.10;;;;;;2225501;62;20400;-69
2024/01/30 10:16:49;0.00;0.00;0.62;0.00;0.00;0.62;8.43;7.47;;;22.10;23.10;;;;;;2227953;62;20836;-69
2024/01/30 10:19:33;0.00;0.00;0.62;0.00;0.00;0.62;10.03;8.20;;;22.10;23.10;;;;;;2232447;62;20812;-69
2024/01/30 10:22:19;0.00;0.00;0.62;0.00;0.00;0.62;11.30;8.97;;;22.10;23.10;;;;;;2229391;62;20439;-70
2024/01/30 10:25:05;0.00;0.00;0.62;0.00;0.00;0.62;8.30;7.50;;;22.10;23.10;;;;;;2459148;54;20482;-72
2024/01/30 10:27:54;0.00;0.00;0.62;0.00;0.00;0.62;9.43;8.23;;;22.20;23.10;;;;;;2229532;62;20364;-69
2024/01/30 10:30:38;0.00;0.00;0.62;0.00;0.00;0.62;8.73;7.83;;;22.10;23.10;;;;;;2232762;62;20360;-70
2024/01/30 10:33:23;0.00;0.00;0.62;0.00;0.00;0.62;9.23;8.00;;;22.20;23.10;;;;;;2229293;62;20428;-69
2024/01/30 10:36:09;0.00;0.00;0.62;0.00;0.00;0.62;11.20;8.40;;;22.20;23.10;;;;;;2232932;62;20390;-69
2024/01/30 10:38:59;0.00;0.00;0.62;0.00;0.00;0.62;9.20;8.20;;;22.20;23.10;;;;;;2234314;62;20367;-69
2024/01/30 10:41:44;0.00;0.00;0.62;0.00;0.00;0.62;9.87;8.20;;;22.20;23.10;;;;;;2233573;62;20415;-69
2024/01/30 10:44:34;0.00;0.00;0.62;0.00;0.00;0.62;8.67;7.70;;;22.20;23.10;;;;;;2234139;62;20415;-69
2024/01/30 10:47:27;0.00;0.00;0.62;0.00;0.00;0.62;10.23;8.07;;;22.20;23.10;;;;;;2532843;46;20784;-69
2024/01/30 10:50:12;0.00;0.00;0.62;0.00;0.00;0.62;11.30;8.20;;;22.20;23.10;;;;;;2231855;62;20439;-70
2024/01/30 10:52:59;0.00;0.00;0.62;0.00;0.00;0.62;12.40;9.57;;;22.20;23.10;;;;;;2234124;62;20387;-70
2024/01/30 10:55:48;0.00;0.00;0.62;0.00;0.00;0.62;10.03;9.03;;;22.20;23.10;;;;;;2224643;62;20368;-72
2024/01/30 10:58:32;0.00;0.00;0.62;0.00;0.00;0.62;10.40;8.40;;;22.20;23.10;;;;;;2230355;62;20586;-70